createdAt,value
2022-12-04T00:01:26.482Z,3.71
2022-12-04T00:03:55.603Z,3.75
2022-12-04T00:06:24.789Z,3.80
2022-12-04T00:08:53.567Z,3.76
2022-12-04T00:11:26.817Z,3.68
2022-12-04T00:13:54.975Z,3.64
2022-12-04T00:16:26.989Z,3.79
2022-12-04T00:18:55.140Z,3.81
2022-12-04T00:21:24.403Z,3.86
2022-12-04T00:23:52.845Z,3.78
2022-12-04T00:26:23.988Z,3.77
2022-12-04T00:28:52.170Z,3.76
2022-12-04T00:31:22.993Z,3.78
2022-12-04T00:33:51.478Z,3.64
2022-12-04T00:36:21.660Z,3.81
2022-12-04T00:38:49.835Z,3.81
2022-12-04T00:41:20.715Z,3.84
2022-12-04T00:43:48.685Z,3.82
2022-12-04T00:46:17.177Z,3.59
2022-12-04T00:48:45.159Z,3.64
2022-12-04T00:51:17.316Z,3.66
2022-12-04T00:53:45.201Z,3.77
2022-12-04T00:56:21.169Z,3.73
2022-12-04T00:58:49.574Z,3.74
2022-12-04T01:01:20.815Z,3.64
2022-12-04T01:03:49.751Z,3.81
2022-12-04T01:06:23.517Z,3.83
2022-12-04T01:08:53.969Z,3.83
2022-12-04T01:11:22.826Z,3.78
2022-12-04T01:13:51.070Z,3.83
2022-12-04T01:16:35.917Z,3.86
2022-12-04T01:19:04.706Z,3.81
2022-12-04T01:21:32.519Z,3.88
2022-12-04T01:24:00.308Z,3.84
2022-12-04T01:26:28.230Z,3.77
2022-12-04T01:28:55.946Z,3.83
2022-12-04T01:31:24.089Z,3.73
2022-12-04T01:33:52.477Z,3.82
2022-12-04T01:36:23.462Z,3.82
2022-12-04T01:38:51.327Z,3.72
2022-12-04T01:41:22.564Z,3.76
2022-12-04T01:44:09.734Z,3.76
2022-12-04T01:46:37.435Z,3.73
2022-12-04T01:49:07.282Z,3.65
2022-12-04T01:51:39.004Z,3.38
2022-12-04T01:54:12.246Z,3.67
2022-12-04T01:56:49.399Z,3.71
2022-12-04T01:59:24.917Z,3.62
2022-12-04T02:02:11.332Z,3.37
2022-12-04T02:04:41.115Z,3.72
2022-12-04T02:07:09.434Z,3.38
2022-12-04T02:09:39.416Z,3.67
2022-12-04T02:12:19.471Z,3.80
2022-12-04T02:15:10.759Z,3.89
2022-12-04T02:17:54.942Z,3.81
2022-12-04T02:20:40.379Z,3.81
2022-12-04T02:23:38.362Z,3.90
2022-12-04T02:26:34.211Z,3.82
2022-12-04T02:29:11.709Z,3.81
2022-12-04T02:31:49.587Z,3.76
2022-12-04T02:34:37.530Z,3.83
2022-12-04T02:37:15.598Z,3.81
2022-12-04T02:39:56.921Z,3.81
2022-12-04T02:42:37.629Z,3.78
2022-12-04T02:45:32.477Z,3.78
2022-12-04T02:48:04.101Z,3.78
2022-12-04T02:50:35.582Z,3.75
2022-12-04T02:53:10.357Z,3.78
2022-12-04T02:55:56.596Z,3.81
2022-12-04T02:58:38.038Z,3.78
2022-12-04T03:01:19.563Z,3.78
2022-12-04T03:04:11.124Z,3.78
2022-12-04T03:06:41.610Z,3.81
2022-12-04T03:09:17.932Z,3.71
2022-12-04T03:11:53.791Z,3.81
2022-12-04T03:14:35.549Z,3.73
2022-12-04T03:17:10.700Z,3.91
2022-12-04T03:19:48.277Z,3.84
2022-12-04T03:22:19.796Z,3.86
2022-12-04T03:24:53.948Z,3.83
2022-12-04T03:28:04.850Z,3.73
2022-12-04T03:30:40.430Z,3.72
2022-12-04T03:33:11.602Z,3.81
2022-12-04T03:35:58.644Z,3.83
2022-12-04T03:38:34.887Z,3.80
2022-12-04T03:41:14.887Z,3.73
2022-12-04T03:43:54.333Z,3.72
2022-12-04T03:46:37.412Z,3.76
2022-12-04T03:49:18.780Z,3.77
2022-12-04T03:51:56.263Z,3.73
2022-12-04T03:54:30.576Z,3.62
2022-12-04T03:57:06.350Z,3.64
2022-12-04T03:59:43.764Z,3.78
2022-12-04T04:02:17.539Z,3.83
2022-12-04T04:04:49.978Z,3.83
2022-12-04T04:07:36.049Z,3.81
2022-12-04T04:10:12.617Z,3.82
2022-12-04T04:12:45.806Z,3.90
2022-12-04T04:15:34.711Z,3.88
2022-12-04T04:18:21.034Z,3.81
2022-12-04T04:21:11.748Z,3.87
2022-12-04T04:24:01.605Z,3.89
2022-12-04T04:26:34.305Z,3.98
2022-12-04T04:29:02.143Z,3.91
2022-12-04T04:31:57.363Z,3.90
2022-12-04T04:34:47.484Z,3.91
2022-12-04T04:37:52.471Z,3.82
2022-12-04T04:40:26.893Z,3.86
2022-12-04T04:43:13.997Z,3.86
2022-12-04T04:45:48.956Z,3.85
2022-12-04T04:48:24.530Z,3.82
2022-12-04T04:50:53.683Z,3.53
2022-12-04T04:53:26.908Z,3.75
2022-12-04T04:55:54.929Z,3.91
2022-12-04T04:58:23.059Z,3.87
2022-12-04T05:00:59.717Z,3.92
2022-12-04T05:03:28.483Z,3.85
2022-12-04T05:05:56.344Z,3.83
2022-12-04T05:08:24.548Z,3.91
2022-12-04T05:10:52.715Z,3.79
2022-12-04T05:13:21.471Z,3.88
2022-12-04T05:15:58.268Z,3.85
2022-12-04T05:18:26.680Z,3.76
2022-12-04T05:20:53.666Z,3.85
2022-12-04T05:23:21.457Z,3.79
2022-12-04T05:25:49.305Z,3.76
2022-12-04T05:28:17.774Z,3.77
2022-12-04T05:30:46.093Z,3.85
2022-12-04T05:33:13.854Z,3.64
2022-12-04T05:35:41.518Z,3.91
2022-12-04T05:38:09.399Z,3.80
2022-12-04T05:40:37.348Z,3.73
2022-12-04T05:43:05.077Z,3.65
2022-12-04T05:45:32.700Z,3.74
2022-12-04T05:48:00.400Z,3.71
2022-12-04T05:50:28.175Z,3.73
2022-12-04T05:52:55.869Z,3.83
2022-12-04T05:55:23.585Z,3.71
2022-12-04T05:57:51.319Z,3.88
2022-12-04T06:00:19.275Z,3.90
2022-12-04T06:02:47.016Z,3.71
2022-12-04T06:05:15.042Z,3.61
2022-12-04T06:07:42.891Z,3.74
2022-12-04T06:10:10.735Z,3.72
2022-12-04T06:12:38.536Z,3.74
2022-12-04T06:15:06.796Z,3.57
2022-12-04T06:17:34.522Z,3.72
2022-12-04T06:20:06.497Z,3.80
2022-12-04T06:22:37.335Z,3.84
2022-12-04T06:25:05.228Z,3.86
2022-12-04T06:27:32.952Z,3.90
2022-12-04T06:30:00.643Z,3.79
2022-12-04T06:32:28.351Z,3.87
2022-12-04T06:34:56.592Z,3.87
2022-12-04T06:37:26.110Z,3.88
2022-12-04T06:39:54.751Z,3.91
2022-12-04T06:42:22.737Z,3.95
2022-12-04T06:44:50.576Z,3.79
2022-12-04T06:47:18.547Z,3.78
2022-12-04T06:49:46.531Z,3.89
2022-12-04T06:52:14.210Z,3.89
2022-12-04T06:54:42.056Z,3.85
2022-12-04T06:57:09.789Z,3.72
2022-12-04T06:59:37.525Z,3.73
2022-12-04T07:02:05.335Z,3.78
2022-12-04T07:04:33.043Z,3.81
2022-12-04T07:07:00.715Z,3.81
2022-12-04T07:09:28.503Z,3.76
2022-12-04T07:11:56.211Z,3.88
2022-12-04T07:14:23.901Z,3.88
2022-12-04T07:16:51.655Z,3.86
2022-12-04T07:19:19.418Z,3.93
2022-12-04T07:21:47.189Z,4.00
2022-12-04T07:24:17.964Z,3.92
2022-12-04T07:26:46.100Z,3.84
2022-12-04T07:29:13.782Z,3.94
2022-12-04T07:31:41.654Z,3.83
2022-12-04T07:34:09.392Z,3.82
2022-12-04T07:36:37.076Z,3.84
2022-12-04T07:39:04.938Z,3.91
2022-12-04T07:41:32.800Z,3.96
2022-12-04T07:44:06.712Z,3.96
2022-12-04T07:46:34.517Z,3.98
2022-12-04T07:49:02.292Z,3.92
2022-12-04T07:51:30.877Z,3.91
2022-12-04T07:54:03.165Z,3.77
2022-12-04T07:56:32.238Z,3.98
2022-12-04T07:59:00.544Z,4.00
2022-12-04T08:01:28.381Z,4.03
2022-12-04T08:03:57.870Z,4.08
2022-12-04T08:06:27.613Z,4.12
2022-12-04T08:08:55.372Z,3.94
2022-12-04T08:11:25.533Z,3.90
2022-12-04T08:14:03.721Z,4.07
2022-12-04T08:16:33.596Z,4.10
2022-12-04T08:19:01.782Z,4.13
2022-12-04T08:21:32.124Z,4.06
2022-12-04T08:24:02.335Z,3.98
2022-12-04T08:26:31.591Z,3.95
2022-12-04T08:29:01.331Z,4.00
2022-12-04T08:31:32.923Z,4.08
2022-12-04T08:34:02.775Z,4.07
2022-12-04T08:36:30.870Z,4.09
2022-12-04T08:38:59.363Z,4.09
2022-12-04T08:41:28.288Z,3.96
2022-12-04T08:43:57.971Z,4.01
2022-12-04T08:46:27.873Z,4.02
2022-12-04T08:48:56.193Z,4.01
2022-12-04T08:51:27.600Z,4.10
2022-12-04T08:53:57.469Z,4.06
2022-12-04T08:56:26.575Z,3.60
2022-12-04T08:58:54.561Z,4.04
2022-12-04T09:01:22.314Z,4.04
2022-12-04T09:03:50.043Z,4.13
2022-12-04T09:06:18.065Z,4.18
2022-12-04T09:08:46.012Z,4.14
2022-12-04T09:11:21.039Z,4.26
2022-12-04T09:13:49.452Z,4.30
2022-12-04T09:16:19.892Z,4.37
2022-12-04T09:18:48.182Z,4.40
2022-12-04T09:21:18.315Z,4.39
2022-12-04T09:23:46.860Z,4.31
2022-12-04T09:26:21.553Z,4.31
2022-12-04T09:28:50.105Z,4.32
2022-12-04T09:31:18.678Z,4.23
2022-12-04T09:33:46.885Z,4.29
2022-12-04T09:36:16.280Z,4.34
2022-12-04T09:38:46.053Z,4.24
2022-12-04T09:41:37.926Z,4.22
2022-12-04T09:44:15.805Z,4.35
2022-12-04T09:46:59.612Z,4.40
2022-12-04T09:49:48.966Z,4.29
2022-12-04T09:52:48.030Z,4.25
2022-12-04T09:55:25.104Z,4.32
2022-12-04T09:58:01.307Z,4.25
2022-12-04T10:00:31.755Z,4.30
2022-12-04T10:03:07.834Z,4.36
2022-12-04T10:05:41.381Z,4.39
2022-12-04T10:08:35.998Z,4.37
2022-12-04T10:11:03.699Z,4.46
2022-12-04T10:13:49.997Z,4.45
2022-12-04T10:16:20.374Z,4.46
2022-12-04T10:18:53.362Z,4.39
2022-12-04T10:21:42.716Z,4.42
2022-12-04T10:24:31.827Z,4.46
2022-12-04T10:27:02.773Z,4.44
2022-12-04T10:29:34.667Z,4.49
2022-12-04T10:32:33.046Z,4.51
2022-12-04T10:35:16.518Z,4.43
2022-12-04T10:37:45.085Z,4.41
2022-12-04T10:40:34.375Z,4.36
2022-12-04T10:43:37.640Z,4.49
2022-12-04T10:46:07.283Z,4.48
2022-12-04T10:48:41.273Z,4.49
2022-12-04T10:51:16.345Z,4.39
2022-12-04T10:53:45.972Z,4.34
2022-12-04T10:56:18.074Z,4.51
2022-12-04T10:59:07.298Z,4.42
2022-12-04T11:01:36.759Z,4.47
2022-12-04T11:04:19.699Z,4.30
2022-12-04T11:06:47.664Z,4.44
2022-12-04T11:09:24.559Z,4.50
2022-12-04T11:11:53.476Z,4.33
2022-12-04T11:14:24.015Z,4.44
2022-12-04T11:17:02.798Z,4.54
2022-12-04T11:19:32.921Z,4.59
2022-12-04T11:22:21.253Z,4.63
2022-12-04T11:24:56.442Z,4.60
2022-12-04T11:27:32.905Z,4.64
2022-12-04T11:30:05.038Z,4.54
2022-12-04T11:32:35.183Z,4.56
2022-12-04T11:35:21.390Z,4.66
2022-12-04T11:38:08.515Z,4.65
2022-12-04T11:40:37.601Z,4.62
2022-12-04T11:43:13.848Z,4.64
2022-12-04T11:45:42.255Z,4.61
2022-12-04T11:48:19.394Z,4.32
2022-12-04T11:50:59.772Z,4.68
2022-12-04T11:53:33.556Z,4.73
2022-12-04T11:56:04.298Z,4.70
2022-12-04T11:58:56.473Z,4.68
2022-12-04T12:01:36.014Z,4.71
2022-12-04T12:04:06.777Z,4.76
2022-12-04T12:06:34.498Z,4.71
2022-12-04T12:09:11.314Z,4.62
2022-12-04T12:11:52.879Z,4.71
2022-12-04T12:14:25.675Z,4.76
2022-12-04T12:17:03.901Z,4.71
2022-12-04T12:19:37.811Z,4.68
2022-12-04T12:22:14.400Z,4.74
2022-12-04T12:24:53.595Z,4.71
2022-12-04T12:27:56.808Z,4.76
2022-12-04T12:30:27.256Z,4.72
2022-12-04T12:33:26.965Z,4.71
2022-12-04T12:36:11.505Z,4.78
2022-12-04T12:38:50.122Z,4.78
2022-12-04T12:41:23.190Z,4.76
2022-12-04T12:44:00.117Z,4.73
2022-12-04T12:47:01.963Z,4.80
2022-12-04T12:49:48.869Z,4.71
2022-12-04T12:52:44.065Z,4.76
2022-12-04T12:55:21.794Z,4.72
2022-12-04T12:58:01.671Z,4.78
2022-12-04T13:00:31.677Z,4.81
2022-12-04T13:03:13.951Z,4.72
2022-12-04T13:05:46.621Z,4.67
2022-12-04T13:08:25.800Z,4.59
2022-12-04T13:11:02.780Z,4.53
2022-12-04T13:13:35.490Z,4.55
2022-12-04T13:16:13.075Z,4.60
2022-12-04T13:19:14.689Z,4.60
2022-12-04T13:21:49.423Z,4.57
2022-12-04T13:24:43.982Z,4.42
2022-12-04T13:27:39.133Z,4.57
2022-12-04T13:30:28.716Z,4.50
2022-12-04T13:33:19.395Z,4.62
2022-12-04T13:35:52.633Z,4.61
2022-12-04T13:38:58.450Z,4.59
2022-12-04T13:41:28.684Z,4.62
2022-12-04T13:43:57.563Z,4.65
2022-12-04T13:46:34.189Z,4.65
2022-12-04T13:49:30.265Z,4.70
2022-12-04T13:52:00.151Z,4.72
2022-12-04T13:54:37.114Z,4.76
2022-12-04T13:57:17.630Z,4.60
2022-12-04T13:59:45.996Z,4.50
2022-12-04T14:02:35.342Z,4.67
2022-12-04T14:05:09.869Z,4.70
2022-12-04T14:07:40.739Z,4.73
2022-12-04T14:10:27.385Z,4.73
2022-12-04T14:13:05.711Z,4.76
2022-12-04T14:15:35.763Z,4.80
2022-12-04T14:18:13.305Z,4.77
2022-12-04T14:20:44.480Z,4.69
2022-12-04T14:23:27.627Z,4.78
2022-12-04T14:25:57.812Z,4.76
2022-12-04T14:28:44.468Z,4.78
2022-12-04T14:31:23.028Z,4.73
2022-12-04T14:34:05.118Z,4.73
2022-12-04T14:36:42.300Z,4.71
2022-12-04T14:39:24.775Z,4.71
2022-12-04T14:41:56.882Z,4.77
2022-12-04T14:44:32.328Z,4.70
2022-12-04T14:47:03.654Z,4.72
2022-12-04T14:49:49.789Z,4.70
2022-12-04T14:52:39.137Z,4.79
2022-12-04T14:55:21.130Z,4.79
2022-12-04T14:57:54.743Z,4.76
2022-12-04T15:00:25.316Z,4.76
2022-12-04T15:02:57.183Z,4.77
2022-12-04T15:05:29.965Z,4.72
2022-12-04T15:08:04.096Z,4.69
2022-12-04T15:10:52.126Z,4.72
2022-12-04T15:13:31.829Z,4.60
2022-12-04T15:16:09.009Z,4.65
2022-12-04T15:18:39.682Z,4.64
2022-12-04T15:21:11.613Z,4.62
2022-12-04T15:23:42.477Z,4.68
2022-12-04T15:26:28.883Z,4.72
2022-12-04T15:29:02.409Z,4.67
2022-12-04T15:31:38.642Z,4.75
2022-12-04T15:34:15.666Z,4.73
2022-12-04T15:36:52.390Z,4.71
2022-12-04T15:39:22.671Z,4.68
2022-12-04T15:41:50.990Z,4.62
2022-12-04T15:44:31.946Z,4.71
2022-12-04T15:47:02.883Z,4.73
2022-12-04T15:49:33.068Z,4.63
2022-12-04T15:52:15.150Z,4.62
2022-12-04T15:55:04.530Z,4.59
2022-12-04T15:57:37.455Z,4.56
2022-12-04T16:00:08.374Z,4.57
2022-12-04T16:02:40.667Z,4.64
2022-12-04T16:05:35.510Z,4.57
2022-12-04T16:08:31.420Z,4.57
2022-12-04T16:11:03.298Z,4.56
2022-12-04T16:13:36.250Z,4.51
2022-12-04T16:16:15.356Z,4.56
2022-12-04T16:18:44.243Z,4.49
2022-12-04T16:21:32.449Z,4.59
2022-12-04T16:24:07.291Z,4.64
2022-12-04T16:26:35.057Z,4.67
2022-12-04T16:29:02.784Z,4.64
2022-12-04T16:31:30.751Z,4.58
2022-12-04T16:33:58.610Z,4.54
2022-12-04T16:36:26.351Z,4.59
2022-12-04T16:38:54.234Z,4.56
2022-12-04T16:41:22.509Z,4.45
2022-12-04T16:43:58.848Z,4.57
2022-12-04T16:46:29.505Z,4.57
2022-12-04T16:49:01.512Z,4.60
2022-12-04T16:51:32.029Z,4.54
2022-12-04T16:53:59.736Z,4.55
2022-12-04T16:56:27.454Z,4.53
2022-12-04T16:58:55.175Z,4.52
2022-12-04T17:01:26.586Z,4.63
2022-12-04T17:03:54.552Z,4.60
2022-12-04T17:06:22.513Z,4.56
2022-12-04T17:08:50.240Z,4.58
2022-12-04T17:11:19.018Z,4.59
2022-12-04T17:13:46.870Z,4.56
2022-12-04T17:16:17.642Z,4.56
2022-12-04T17:18:47.633Z,4.41
2022-12-04T17:21:15.965Z,4.22
2022-12-04T17:23:44.182Z,4.47
2022-12-04T17:26:14.566Z,4.44
2022-12-04T17:28:43.028Z,4.49
2022-12-04T17:31:16.977Z,4.50
2022-12-04T17:33:45.663Z,4.49
2022-12-04T17:36:16.213Z,4.58
2022-12-04T17:38:44.747Z,4.55
2022-12-04T17:41:16.758Z,4.51
2022-12-04T17:43:45.005Z,4.51
2022-12-04T17:46:19.036Z,4.51
2022-12-04T17:48:48.943Z,4.57
2022-12-04T17:51:23.279Z,4.57
2022-12-04T17:53:51.662Z,4.57
2022-12-04T17:56:21.477Z,4.43
2022-12-04T17:58:49.881Z,4.61
2022-12-04T18:01:20.938Z,4.55
2022-12-04T18:03:53.731Z,4.57
2022-12-04T18:06:22.665Z,4.55
2022-12-04T18:08:51.533Z,4.49
2022-12-04T18:11:20.835Z,4.49
2022-12-04T18:14:00.028Z,4.60
2022-12-04T18:16:29.111Z,4.58
2022-12-04T18:18:57.981Z,4.60
2022-12-04T18:21:26.441Z,4.54
2022-12-04T18:23:57.271Z,4.53
2022-12-04T18:26:27.101Z,4.57
2022-12-04T18:28:58.178Z,4.60
2022-12-04T18:31:26.083Z,4.59
2022-12-04T18:33:53.946Z,4.55
2022-12-04T18:36:25.609Z,4.64
2022-12-04T18:39:06.065Z,4.50
2022-12-04T18:41:33.939Z,4.56
2022-12-04T18:44:03.030Z,4.58
2022-12-04T18:46:31.165Z,4.51
2022-12-04T18:49:00.049Z,4.46
2022-12-04T18:51:37.518Z,4.42
2022-12-04T18:54:08.067Z,4.34
2022-12-04T18:56:37.265Z,4.39
2022-12-04T18:59:26.943Z,4.47
2022-12-04T19:01:55.247Z,4.53
2022-12-04T19:04:24.977Z,4.36
2022-12-04T19:06:55.707Z,4.16
2022-12-04T19:10:09.930Z,4.22
2022-12-04T19:12:15.170Z,4.35
2022-12-04T19:14:42.922Z,4.15
2022-12-04T19:17:11.402Z,4.22
2022-12-04T19:19:39.154Z,4.42
2022-12-04T19:22:07.158Z,4.45
2022-12-04T19:24:34.854Z,4.46
2022-12-04T19:27:10.127Z,4.41
2022-12-04T19:29:39.439Z,4.34
2022-12-04T19:32:08.492Z,4.36
2022-12-04T19:34:36.741Z,4.30
2022-12-04T19:37:04.586Z,4.26
2022-12-04T19:39:32.592Z,4.43
2022-12-04T19:42:00.314Z,4.40
2022-12-04T19:47:15.745Z,4.48
2022-12-04T19:49:43.530Z,4.48
2022-12-04T19:52:11.956Z,4.47
2022-12-04T19:54:40.214Z,4.52
2022-12-04T19:57:07.992Z,4.25
2022-12-04T19:59:38.568Z,4.40
2022-12-04T20:02:07.897Z,4.40
2022-12-04T20:04:35.770Z,4.39
2022-12-04T20:07:03.486Z,4.38
2022-12-04T20:09:31.522Z,4.46
2022-12-04T20:11:59.269Z,4.50
2022-12-04T20:14:27.031Z,4.56
2022-12-04T20:16:54.883Z,4.53
2022-12-04T20:19:22.707Z,4.49
2022-12-04T20:21:56.081Z,4.58
2022-12-04T20:24:26.711Z,4.51
2022-12-04T20:26:54.343Z,4.51
2022-12-04T20:29:22.148Z,4.41
2022-12-04T20:31:49.974Z,4.40
2022-12-04T20:34:19.728Z,4.37
2022-12-04T20:36:49.269Z,4.46
2022-12-04T20:39:18.632Z,4.36
2022-12-04T20:41:46.374Z,4.43
2022-12-04T20:44:16.429Z,4.48
2022-12-04T20:46:44.619Z,4.47
2022-12-04T20:49:21.049Z,4.11
2022-12-04T20:51:50.214Z,4.41
2022-12-04T20:54:20.692Z,4.47
2022-12-04T20:56:49.469Z,4.39
2022-12-04T20:59:19.145Z,4.35
2022-12-04T21:01:48.915Z,4.36
2022-12-04T21:04:17.964Z,4.33
2022-12-04T21:06:47.706Z,4.43
2022-12-04T21:09:23.353Z,4.39
2022-12-04T21:11:53.768Z,4.38
2022-12-04T21:14:47.903Z,4.40
2022-12-04T21:17:18.868Z,4.39
2022-12-04T21:19:51.485Z,4.36
2022-12-04T21:22:20.395Z,4.46
2022-12-04T21:24:48.103Z,4.36
2022-12-04T21:27:20.731Z,4.37
2022-12-04T21:29:49.701Z,4.44
2022-12-04T21:32:18.191Z,4.41
2022-12-04T21:34:46.117Z,4.32
2022-12-04T21:37:14.107Z,4.41
2022-12-04T21:39:42.508Z,4.45
2022-12-04T21:42:27.950Z,4.39
2022-12-04T21:44:55.668Z,4.33
2022-12-04T21:47:23.398Z,4.26
2022-12-04T21:49:51.107Z,4.40
2022-12-04T21:52:19.533Z,4.34
2022-12-04T21:54:57.091Z,4.29
2022-12-04T21:57:25.216Z,4.44
2022-12-04T21:59:53.368Z,4.41
2022-12-04T22:02:21.787Z,4.41
2022-12-04T22:04:49.594Z,4.43
2022-12-04T22:07:17.554Z,4.45
2022-12-04T22:09:45.421Z,4.41
2022-12-04T22:12:47.951Z,4.11
2022-12-04T22:15:00.768Z,4.30
2022-12-04T22:17:31.643Z,4.39
2022-12-04T22:19:59.657Z,4.32
2022-12-04T22:22:27.412Z,4.25
2022-12-04T22:24:55.097Z,4.28
2022-12-04T22:27:22.709Z,4.35
2022-12-04T22:30:02.210Z,4.30
2022-12-04T22:32:30.065Z,4.29
2022-12-04T22:34:57.784Z,4.17
2022-12-04T22:37:25.459Z,4.29
2022-12-04T22:39:53.123Z,4.19
2022-12-04T22:42:20.799Z,4.24
2022-12-04T22:44:48.505Z,4.20
2022-12-04T22:47:16.303Z,4.20
2022-12-04T22:49:43.980Z,4.24
2022-12-04T22:52:11.752Z,4.06
2022-12-04T22:54:39.499Z,4.16
2022-12-04T22:57:07.169Z,4.10
2022-12-04T22:59:34.891Z,4.28
2022-12-04T23:02:02.611Z,4.18
2022-12-04T23:04:30.596Z,4.30
2022-12-04T23:06:58.333Z,4.32
2022-12-04T23:09:27.881Z,4.30
2022-12-04T23:11:56.739Z,4.37
2022-12-04T23:14:24.517Z,4.32
2022-12-04T23:16:52.255Z,4.27
2022-12-04T23:19:20.612Z,4.25
2022-12-04T23:21:53.583Z,4.29
2022-12-04T23:24:24.565Z,4.27
2022-12-04T23:26:52.184Z,4.26
2022-12-04T23:32:07.623Z,4.33
2022-12-04T23:34:35.384Z,4.37
2022-12-04T23:37:03.074Z,4.29
2022-12-04T23:39:30.925Z,4.34
2022-12-04T23:41:58.578Z,4.40
2022-12-04T23:44:26.275Z,4.38
2022-12-04T23:46:54.051Z,4.41
2022-12-04T23:49:21.812Z,4.35
2022-12-04T23:51:49.460Z,4.28
2022-12-04T23:54:17.140Z,4.30
2022-12-04T23:56:45.043Z,4.30
2022-12-04T23:59:12.722Z,4.22
